| time (UTC) | temp F | wind direction | speed knots | gust knots | rain 1hr in | rain 24hr in | rain mn in | humidity % | barometer mb |
| 20260509150036 | 68 | 278 | 0.9 | 4.3 | 0.00 | 0.00 | 0.00 | 66 | 1009.0 |
| 20260509144534 | 67 | 0 | 0.0 | 5.2 | 0.00 | 0.00 | 0.00 | 70 | 1009.0 |
| 20260509143035 | 66 | 218 | 1.7 | 6.1 | 0.00 | 0.00 | 0.00 | 70 | 1008.8 |
| 20260509141534 | 67 | 196 | 0.0 | 4.3 | 0.00 | 0.00 | 0.00 | 73 | 1009.0 |
| 20260509140032 | 65 | 233 | 0.9 | 5.2 | 0.00 | 0.00 | 0.00 | 72 | 1008.9 |
| 20260509134530 | 66 | 82 | 2.6 | 4.3 | 0.00 | 0.00 | 0.00 | 70 | 1008.7 |
| 20260509133029 | 66 | 0 | 0.0 | 1.7 | 0.00 | 0.00 | 0.00 | 72 | 1008.9 |
| 20260509131545 | 64 | 99 | 1.7 | 3.5 | 0.00 | 0.00 | 0.00 | 72 | 1008.7 |
| 20260509130039 | 63 | 0 | 0.0 | 2.6 | 0.00 | 0.00 | 0.00 | 76 | 1008.4 |
| 20260509124530 | 62 | 336 | 0.9 | 4.3 | 0.00 | 0.00 | 0.00 | 78 | 1008.5 |
| 20260509123032 | 61 | 0 | 0.0 | 4.3 | 0.00 | 0.00 | 0.00 | 82 | 1008.2 |
| 20260509121532 | 60 | 18 | 1.7 | 4.3 | 0.00 | 0.00 | 0.00 | 83 | 1008.1 |
| 20260509120036 | 59 | 5 | 2.6 | 3.5 | 0.00 | 0.00 | 0.00 | 84 | 1008.2 |
| 20260509114538 | 58 | 0 | 0.0 | 0.9 | 0.00 | 0.00 | 0.00 | 88 | 1008.1 |
| 20260509113034 | 57 | 340 | 0.0 | 0.9 | 0.00 | 0.00 | 0.00 | 87 | 1008.1 |
| 20260509111529 | 57 | 0 | 0.0 | 2.6 | 0.00 | 0.00 | 0.00 | 88 | 1007.6 |
| 20260509110030 | 57 | 0 | 0.0 | 6.1 | 0.00 | 0.00 | 0.00 | 88 | 1007.4 |
| 20260509104528 | 57 | 42 | 2.6 | 5.2 | 0.00 | 0.00 | 0.00 | 88 | 1007.0 |
| 20260509103030 | 57 | 46 | 1.7 | 3.5 | 0.00 | 0.00 | 0.00 | 88 | 1007.0 |
| 20260509101543 | 57 | 60 | 0.9 | 2.6 | 0.00 | 0.00 | 0.00 | 88 | 1007.1 |
| 20260509100030 | 57 | 0 | 0.0 | 3.5 | 0.00 | 0.00 | 0.00 | 88 | 1007.3 |
| 20260509094530 | 58 | 327 | 1.7 | 4.3 | 0.00 | 0.00 | 0.00 | 87 | 1007.5 |
| 20260509093033 | 58 | 21 | 2.6 | 5.2 | 0.00 | 0.00 | 0.00 | 87 | 1007.3 |
| 20260509091529 | 58 | 75 | 2.6 | 4.3 | 0.00 | 0.00 | 0.00 | 86 | 1007.4 |
| 20260509090030 | 58 | 29 | 1.7 | 5.2 | 0.00 | 0.00 | 0.00 | 86 | 1007.2 |
| 20260509084530 | 58 | 27 | 2.6 | 4.3 | 0.00 | 0.00 | 0.00 | 85 | 1007.2 |
| 20260509083041 | 58 | 329 | 0.9 | 3.5 | 0.00 | 0.00 | 0.00 | 85 | 1007.6 |
| 20260509081533 | 59 | 349 | 0.9 | 2.6 | 0.00 | 0.00 | 0.00 | 84 | 1007.9 |
| 20260509080034 | 59 | 324 | 0.9 | 4.3 | 0.00 | 0.00 | 0.00 | 83 | 1008.0 |
| 20260509074531 | 59 | 309 | 1.7 | 5.2 | 0.00 | 0.00 | 0.00 | 81 | 1007.9 |
| 20260509073028 | 60 | 314 | 0.9 | 5.2 | 0.00 | 0.00 | 0.00 | 77 | 1007.9 |
| 20260509071532 | 60 | 316 | 0.9 | 3.5 | 0.00 | 0.00 | 0.00 | 75 | 1007.7 |
| 20260509070031 | 61 | 316 | 0.9 | 4.3 | 0.00 | 0.00 | 0.00 | 72 | 1007.8 |
| 20260509064533 | 61 | 0 | 0.0 | 2.6 | 0.00 | 0.00 | 0.00 | 71 | 1007.9 |
| 20260509063030 | 61 | 324 | 2.6 | 4.3 | 0.00 | 0.00 | 0.00 | 71 | 1008.1 |
| 20260509061532 | 61 | 198 | 0.9 | 3.5 | 0.00 | 0.00 | 0.00 | 68 | 1007.5 |
| 20260509060030 | 62 | 219 | 0.9 | 4.3 | 0.00 | 0.00 | 0.00 | 67 | 1007.5 |
| 20260509054530 | 62 | 175 | 2.6 | 6.1 | 0.00 | 0.00 | 0.00 | 67 | 1007.8 |
| 20260509053030 | 61 | 172 | 1.7 | 3.5 | 0.00 | 0.00 | 0.00 | 67 | 1007.9 |
| 20260509051536 | 62 | 0 | 0.0 | 0.0 | 0.00 | 0.00 | 0.00 | 67 | 1007.9 |
| 20260509050034 | 62 | 0 | 0.0 | 2.6 | 0.00 | 0.00 | 0.00 | 66 | 1007.9 |
| 20260509044533 | 62 | 125 | 0.0 | 3.5 | 0.00 | 0.00 | 0.00 | 65 | 1008.0 |
| 20260509043029 | 62 | 0 | 0.0 | 2.6 | 0.00 | 0.00 | 0.00 | 64 | 1008.1 |
| 20260509041530 | 63 | 165 | 1.7 | 3.5 | 0.00 | 0.00 | 0.00 | 63 | 1008.0 |
| 20260509040036 | 63 | 194 | 0.9 | 3.5 | 0.00 | 0.00 | 0.00 | 63 | 1008.1 |
| 20260509034544 | 63 | 189 | 2.6 | 5.2 | 0.00 | 0.00 | 0.00 | 61 | 1008.2 |
| 20260509033029 | 64 | 166 | 3.5 | 5.2 | 0.00 | 0.00 | 0.00 | 60 | 1008.2 |
| 20260509031534 | 64 | 158 | 3.5 | 5.2 | 0.00 | 0.00 | 0.00 | 60 | 1008.3 |
| 20260509030032 | 64 | 182 | 3.5 | 5.2 | 0.00 | 0.00 | 0.00 | 59 | 1008.4 |
| 20260509024535 | 65 | 162 | 3.5 | 5.2 | 0.00 | 0.00 | 0.00 | 57 | 1008.5 |
| 20260509023034 | 65 | 176 | 3.5 | 5.2 | 0.00 | 0.00 | 0.00 | 57 | 1008.5 |
| 20260509021530 | 66 | 155 | 3.5 | 7.0 | 0.00 | 0.00 | 0.00 | 55 | 1008.6 |
| 20260509020031 | 67 | 182 | 4.3 | 5.2 | 0.00 | 0.00 | 0.00 | 54 | 1008.6 |
| 20260509014531 | 67 | 158 | 1.7 | 4.3 | 0.00 | 0.00 | 0.00 | 53 | 1008.5 |
| 20260509013032 | 67 | 208 | 2.6 | 7.0 | 0.00 | 0.00 | 0.00 | 53 | 1008.4 |
| 20260509011530 | 67 | 211 | 3.5 | 7.8 | 0.00 | 0.00 | 0.00 | 53 | 1008.5 |
| 20260509010036 | 67 | 200 | 2.6 | 4.3 | 0.00 | 0.00 | 0.00 | 53 | 1008.5 |
| 20260509004535 | 68 | 218 | 3.5 | 6.1 | 0.00 | 0.00 | 0.00 | 53 | 1008.6 |
| 20260509003031 | 68 | 222 | 0.9 | 4.3 | 0.00 | 0.00 | 0.00 | 52 | 1008.9 |
| 20260509001535 | 69 | 215 | 1.7 | 4.3 | 0.00 | 0.00 | 0.00 | 52 | 1008.9 |
| 20260509000032 | 69 | 213 | 0.0 | 4.3 | 0.00 | 0.00 | 0.00 | 50 | 1009.1 |
| 20260508234530 | 70 | 219 | 1.7 | 6.1 | 0.00 | 0.00 | 0.00 | 49 | 1009.1 |
| 20260508233029 | 71 | 224 | 0.9 | 7.8 | 0.00 | 0.00 | 0.00 | 48 | 1009.3 |
| 20260508231530 | 72 | 207 | 2.6 | 8.7 | 0.00 | 0.00 | 0.00 | 46 | 1009.2 |
| 20260508230032 | 72 | 185 | 5.2 | 13.0 | 0.00 | 0.00 | 0.00 | 45 | 1009.3 |
| 20260508224536 | 72 | 233 | 6.1 | 14.8 | 0.00 | 0.00 | 0.00 | 45 | 1009.3 |
| 20260508223044 | 73 | 215 | 5.2 | 13.0 | 0.00 | 0.00 | 0.00 | 44 | 1009.2 |
| 20260508221531 | 73 | 214 | 4.3 | 13.9 | 0.00 | 0.00 | 0.00 | 44 | 1009.1 |
| 20260508220031 | 73 | 187 | 5.2 | 13.9 | 0.00 | 0.00 | 0.00 | 45 | 1009.1 |
| 20260508214550 | 72 | 225 | 7.0 | 13.0 | 0.00 | 0.00 | 0.00 | 44 | 1009.3 |
| 20260508213029 | 73 | 177 | 7.0 | 13.9 | 0.00 | 0.00 | 0.00 | 44 | 1009.2 |
| 20260508211533 | 73 | 207 | 4.3 | 11.3 | 0.00 | 0.00 | 0.00 | 46 | 1009.4 |
| 20260508210033 | 73 | 208 | 5.2 | 13.0 | 0.00 | 0.00 | 0.00 | 45 | 1009.6 |
| 20260508204534 | 72 | 180 | 7.0 | 18.2 | 0.00 | 0.00 | 0.00 | 46 | 1009.8 |
| 20260508203030 | 72 | 206 | 8.7 | 18.2 | 0.00 | 0.00 | 0.00 | 46 | 1010.1 |
| 20260508201532 | 72 | 209 | 8.7 | 13.0 | 0.00 | 0.00 | 0.00 | 45 | 1010.2 |
| 20260508200040 | 72 | 207 | 7.8 | 13.0 | 0.00 | 0.00 | 0.00 | 46 | 1010.4 |
| 20260508194530 | 72 | 220 | 6.1 | 14.8 | 0.00 | 0.00 | 0.00 | 48 | 1010.6 |
| 20260508193042 | 72 | 197 | 7.8 | 14.8 | 0.00 | 0.00 | 0.00 | 48 | 1011.0 |
| 20260508191536 | 72 | 193 | 5.2 | 13.9 | 0.00 | 0.00 | 0.00 | 47 | 1011.2 |
| 20260508190047 | 71 | 221 | 5.2 | 15.6 | 0.00 | 0.00 | 0.00 | 46 | 1011.5 |
| 20260508184535 | 71 | 184 | 6.1 | 14.8 | 0.00 | 0.00 | 0.00 | 49 | 1011.7 |
| 20260508183039 | 71 | 212 | 7.0 | 17.4 | 0.00 | 0.00 | 0.00 | 47 | 1012.0 |
| 20260508181529 | 70 | 211 | 5.2 | 14.8 | 0.00 | 0.00 | 0.00 | 47 | 1011.9 |
| 20260508180034 | 70 | 270 | 5.2 | 13.9 | 0.00 | 0.00 | 0.00 | 47 | 1012.0 |
| 20260508174542 | 70 | 204 | 6.1 | 14.8 | 0.00 | 0.00 | 0.00 | 46 | 1012.4 |
| 20260508173030 | 69 | 193 | 8.7 | 14.8 | 0.00 | 0.00 | 0.00 | 47 | 1012.5 |
| 20260508171533 | 69 | 182 | 8.7 | 16.5 | 0.00 | 0.00 | 0.00 | 48 | 1012.7 |
| 20260508170035 | 69 | 188 | 7.0 | 13.9 | 0.00 | 0.00 | 0.00 | 50 | 1012.8 |
| 20260508164537 | 69 | 197 | 6.1 | 12.2 | 0.00 | 0.00 | 0.00 | 53 | 1012.9 |
| 20260508163032 | 68 | 191 | 6.1 | 12.2 | 0.00 | 0.00 | 0.00 | 52 | 1013.2 |
| 20260508161530 | 67 | 265 | 6.1 | 15.6 | 0.00 | 0.00 | 0.00 | 51 | 1013.5 |
| 20260508160034 | 67 | 226 | 4.3 | 13.0 | 0.00 | 0.00 | 0.00 | 56 | 1014.0 |
| 20260508154530 | 66 | 234 | 5.2 | 12.2 | 0.00 | 0.00 | 0.00 | 55 | 1014.4 |
| 20260508153042 | 66 | 166 | 6.1 | 12.2 | 0.00 | 0.00 | 0.00 | 56 | 1014.5 |
| 20260508151529 | 65 | 204 | 5.2 | 13.9 | 0.00 | 0.00 | 0.00 | 58 | 1014.5 |